Главная страница
METAR-TAF:

METAR-TAF

Аэропорты :

Фунафути, Тувалу

широта: 08-31S, долгота: 179-13E, высота над уровнем моря: 1 м

Текущие метеонаблюдения

Эта сводка был подготовлена 9 минут назад, в 19:00 UTC
Ветер 2 Узел переменных направлений
Температура 29°C
Влажность 84%
Давление 1009 hPa
Видимость 10 км и более
небольшая облачность на высоте 1800 фута, мощно-кучевые.

METAR: NGFU 231900Z VRB02KT 9999 FEW018TCU 29/26 Q1009

Время: 07:09 (19:09 UTC)

Прогноз

Эта сводка был подготовлена 1 час и 58 минут назад, в 17:11 UTC
Прогноз действительный с 23-го 18 UTC до 24-го 18 UTC
Ветер 8 Узел от восточный
Видимость 10 км и более
небольшая облачность на высоте 2000 фута

TAF: NGFU 231711Z 2318/2418 09008KT 9999 FEW020

Метеонаблюдения и прогнозы для более 4000 аэропортов (сводки METAR и TAF).

Имеющиеся станции представлены на карте желтыми и красными точками.

Чтобы увидеть название станции, наведите на нее мышь.

Затем щелкните, чтобы увидеть метеонаблюдения и метеопрогнозы.

Управление картой: чтобы увеличить масштаб, щелкните зеленые кнопки с черным крестиком; чтобы уменьшить масштаб, щелкните зеленую кнопку с тире; для просмотра соседних карт щелкайте зеленые стрелки.


METAR-TAF: